Time;durP1;ratioP1;P1;durP2;ratioP2;P2;SDS_P1;SDS_P2;PMS_P1;PMS_P2;Temp;Humidity;BMP_temperature;BMP_pressure;BME280_temperature;BME280_humidity;BME280_pressure;Samples;Min_cycle;Max_cycle;Signal;HPM_P1;HPM_P2
2022/09/01 00:01:51;;;;;;;5.30;1.42;;;14.20;99.90;;;;;;5069617;28;20072;-72
2022/09/01 00:04:20;;;;;;;4.43;1.40;;;14.20;99.90;;;;;;5066631;28;20052;-72
2022/09/01 00:06:47;;;;;;;4.55;1.67;;;14.10;99.90;;;;;;5066742;28;20040;-72
2022/09/01 00:09:16;;;;;;;7.32;1.35;;;14.10;99.90;;;;;;5050380;28;20052;-72
2022/09/01 00:11:45;;;;;;;6.40;1.58;;;14.20;99.90;;;;;;5068596;28;20141;-72
2022/09/01 00:14:12;;;;;;;4.03;1.30;;;14.00;99.90;;;;;;5057334;28;20045;-72
2022/09/01 00:16:38;;;;;;;5.75;1.55;;;14.00;99.90;;;;;;5068537;28;20040;-72
2022/09/01 00:19:04;;;;;;;6.05;1.60;;;14.00;99.90;;;;;;5067230;28;20086;-73
2022/09/01 00:21:33;;;;;;;4.90;1.38;;;14.00;99.90;;;;;;5051591;28;20044;-72
2022/09/01 00:24:00;;;;;;;7.00;1.67;;;14.00;99.90;;;;;;5047574;28;20598;-72
2022/09/01 00:26:26;;;;;;;5.22;1.40;;;14.00;99.90;;;;;;5065627;28;20040;-72
2022/09/01 00:28:52;;;;;;;3.22;1.38;;;14.00;99.90;;;;;;5067914;28;20079;-72
2022/09/01 00:31:19;;;;;;;3.60;1.10;;;14.00;99.90;;;;;;5067922;28;20041;-72
2022/09/01 00:33:46;;;;;;;2.05;1.00;;;14.00;99.90;;;;;;5050043;28;20050;-72
2022/09/01 00:36:12;;;;;;;3.38;1.20;;;14.00;99.90;;;;;;5068941;28;20032;-72
2022/09/01 00:38:39;;;;;;;3.75;1.30;;;14.00;99.90;;;;;;5068442;28;20041;-72
2022/09/01 00:41:06;;;;;;;3.03;1.20;;;14.00;99.90;;;;;;5066037;28;20120;-72
2022/09/01 00:43:43;;;;;;;5.80;1.10;;;14.00;99.90;;;;;;5067373;28;20044;-72
2022/09/01 00:46:16;;;;;;;2.25;1.00;;;14.00;99.90;;;;;;5066019;28;20040;-72
2022/09/01 00:48:42;;;;;;;3.63;1.13;;;14.00;99.90;;;;;;5052002;28;20450;-68
2022/09/01 00:51:10;;;;;;;4.20;1.23;;;14.10;99.90;;;;;;5054674;28;20110;-67
2022/09/01 00:53:39;;;;;;;2.10;0.80;;;14.00;99.90;;;;;;5067339;28;20037;-68
2022/09/01 00:56:06;;;;;;;3.70;1.10;;;14.00;99.90;;;;;;5064987;28;20044;-68
2022/09/01 00:58:34;;;;;;;4.03;1.30;;;14.00;99.90;;;;;;5068453;28;20127;-68
2022/09/01 01:01:01;;;;;;;4.57;0.95;;;14.00;99.90;;;;;;5065300;28;20123;-69
2022/09/01 01:03:29;;;;;;;3.05;1.08;;;14.00;99.90;;;;;;5050104;28;20052;-68
2022/09/01 01:05:57;;;;;;;4.38;1.27;;;14.00;99.90;;;;;;5068260;28;20048;-68
2022/09/01 01:08:33;;;;;;;4.03;1.13;;;14.00;99.90;;;;;;5063094;28;20080;-68
2022/09/01 01:11:16;;;;;;;3.58;1.00;;;14.00;99.90;;;;;;5064117;28;20045;-68
2022/09/01 01:13:55;;;;;;;2.30;1.10;;;14.00;99.90;;;;;;5066914;28;20044;-68
2022/09/01 01:16:23;;;;;;;2.90;1.10;;;14.00;99.90;;;;;;5066889;28;20037;-68
2022/09/01 01:18:50;;;;;;;3.15;1.00;;;14.00;99.90;;;;;;5049475;28;20040;-68
2022/09/01 01:24:33;;;;;;;4.32;1.10;;;14.00;99.90;;;;;;5064846;28;20127;-68
2022/09/01 01:26:59;;;;;;;2.33;1.00;;;14.00;99.90;;;;;;5065697;28;20044;-68
2022/09/01 01:29:36;;;;;;;2.47;0.98;;;14.00;99.90;;;;;;5049454;28;20048;-68
2022/09/01 01:32:04;;;;;;;3.45;0.90;;;13.90;99.90;;;;;;5074403;28;20091;-68
2022/09/01 01:34:30;;;;;;;4.60;1.38;;;14.00;99.90;;;;;;5065026;28;20048;-68
2022/09/01 01:36:58;;;;;;;2.47;1.00;;;14.00;99.90;;;;;;5063978;28;20036;-68
2022/09/01 01:39:25;;;;;;;4.32;0.90;;;14.00;99.90;;;;;;5065410;28;20481;-67
2022/09/01 01:41:53;;;;;;;2.67;0.93;;;14.00;99.90;;;;;;5062157;28;20045;-67
2022/09/01 01:44:26;;;;;;;2.95;0.90;;;14.00;99.90;;;;;;5065199;28;20074;-68
2022/09/01 01:46:54;;;;;;;2.78;1.05;;;14.00;99.90;;;;;;5065699;28;20152;-68
2022/09/01 01:49:23;;;;;;;2.85;1.00;;;14.00;99.90;;;;;;5048373;28;20049;-68
2022/09/01 01:51:56;;;;;;;4.57;1.00;;;14.00;99.90;;;;;;5061514;28;20075;-68
2022/09/01 01:54:23;;;;;;;1.92;0.82;;;14.00;99.90;;;;;;5065162;28;20119;-68
2022/09/01 01:56:49;;;;;;;2.10;0.93;;;14.00;99.90;;;;;;5065266;28;20519;-68
2022/09/01 01:59:15;;;;;;;3.65;0.90;;;14.10;99.90;;;;;;5065599;28;20071;-68
2022/09/01 02:01:42;;;;;;;4.45;1.00;;;14.10;99.90;;;;;;5048932;28;20072;-67
2022/09/01 02:04:10;;;;;;;2.65;0.90;;;14.10;99.90;;;;;;5047505;28;20528;-68
2022/09/01 02:06:39;;;;;;;3.42;1.00;;;14.10;99.90;;;;;;5064433;28;20623;-68
2022/09/01 02:09:06;;;;;;;5.25;1.10;;;14.10;99.90;;;;;;5065956;28;20121;-68
2022/09/01 02:11:32;;;;;;;2.53;1.08;;;14.10;99.90;;;;;;5053152;28;20107;-68
2022/09/01 02:13:59;;;;;;;2.05;0.90;;;14.10;99.90;;;;;;5048854;28;20041;-68
2022/09/01 02:16:31;;;;;;;2.17;0.90;;;14.10;99.90;;;;;;5047075;28;20090;-68
2022/09/01 02:18:58;;;;;;;2.35;0.88;;;14.10;99.90;;;;;;5048651;28;20203;-68
2022/09/01 02:21:25;;;;;;;3.80;0.90;;;14.10;99.90;;;;;;5050639;28;20059;-68
2022/09/01 02:24:00;;;;;;;3.40;1.10;;;14.10;99.90;;;;;;5062999;28;20056;-68
2022/09/01 02:26:47;;;;;;;3.10;1.00;;;14.20;99.90;;;;;;5063794;28;20040;-68
2022/09/01 02:29:20;;;;;;;5.22;1.27;;;14.10;99.90;;;;;;5064274;28;20127;-68
2022/09/01 02:31:51;;;;;;;2.28;0.90;;;14.10;99.90;;;;;;5062735;28;20051;-68
2022/09/01 02:34:19;;;;;;;4.72;1.17;;;14.10;99.90;;;;;;5063440;28;20497;-68
2022/09/01 02:36:47;;;;;;;4.20;1.40;;;14.20;99.90;;;;;;5063330;28;20056;-68
2022/09/01 02:39:21;;;;;;;3.17;1.00;;;14.20;99.90;;;;;;5063976;28;20524;-68
2022/09/01 02:41:48;;;;;;;2.28;0.95;;;14.20;99.90;;;;;;5062125;28;20126;-68
2022/09/01 02:44:15;;;;;;;3.42;0.90;;;14.20;99.90;;;;;;5065106;28;20527;-68
2022/09/01 02:46:43;;;;;;;3.03;1.00;;;14.20;99.90;;;;;;5065363;28;20602;-68
2022/09/01 02:49:14;;;;;;;3.58;1.08;;;14.20;99.90;;;;;;5063383;28;20090;-68
2022/09/01 02:51:45;;;;;;;3.78;1.33;;;14.20;99.90;;;;;;5048192;28;20086;-68
2022/09/01 02:54:16;;;;;;;3.55;1.30;;;14.20;99.90;;;;;;5061343;28;20047;-68
2022/09/01 02:56:47;;;;;;;2.60;1.17;;;14.20;99.90;;;;;;5065451;28;20260;-68
2022/09/01 02:59:20;;;;;;;3.70;1.10;;;14.20;99.90;;;;;;5063384;28;20045;-68
2022/09/01 03:01:48;;;;;;;4.80;1.20;;;14.30;99.90;;;;;;5060392;28;20067;-68
2022/09/01 03:04:15;;;;;;;4.20;1.20;;;14.20;99.90;;;;;;5063705;28;20123;-68
2022/09/01 03:06:41;;;;;;;7.22;1.10;;;14.20;99.90;;;;;;5064817;28;20048;-68
2022/09/01 03:09:14;;;;;;;2.08;1.20;;;14.20;99.90;;;;;;5064208;28;20040;-68
2022/09/01 03:11:45;;;;;;;2.95;1.10;;;14.20;99.90;;;;;;5062016;28;20136;-68
2022/09/01 03:14:12;;;;;;;5.47;1.20;;;14.40;99.90;;;;;;5043752;28;20040;-68
2022/09/01 03:16:38;;;;;;;4.15;1.17;;;14.20;99.90;;;;;;5064552;28;20056;-68
2022/09/01 03:19:08;;;;;;;4.55;1.08;;;14.20;99.90;;;;;;5064625;28;20040;-68
2022/09/01 03:21:36;;;;;;;3.28;1.30;;;14.20;99.90;;;;;;5065275;28;20512;-67
2022/09/01 03:24:03;;;;;;;4.95;1.45;;;14.20;99.90;;;;;;5064271;28;20060;-68
2022/09/01 03:26:30;;;;;;;2.08;1.02;;;14.20;99.90;;;;;;5063070;28;20413;-67
2022/09/01 03:28:56;;;;;;;4.28;1.40;;;14.20;99.90;;;;;;5045912;28;20455;-68
2022/09/01 03:31:26;;;;;;;4.38;1.30;;;14.20;99.90;;;;;;5065249;28;20048;-68
2022/09/01 03:33:53;;;;;;;2.90;1.17;;;14.20;99.90;;;;;;5065194;28;20508;-68
2022/09/01 03:36:19;;;;;;;2.55;1.23;;;14.30;99.90;;;;;;5062612;28;21913;-68
2022/09/01 03:38:49;;;;;;;5.78;1.20;;;14.20;99.90;;;;;;5064317;28;20050;-68
2022/09/01 03:41:20;;;;;;;3.95;1.50;;;14.20;99.90;;;;;;5061249;28;20044;-68
2022/09/01 03:43:46;;;;;;;4.57;1.20;;;14.20;99.90;;;;;;5062115;28;20582;-68
2022/09/01 03:46:18;;;;;;;4.32;1.23;;;14.20;99.90;;;;;;5047184;28;20036;-68
2022/09/01 03:48:47;;;;;;;3.60;1.45;;;14.10;99.90;;;;;;5045405;28;20084;-68
2022/09/01 03:51:14;;;;;;;8.63;1.75;;;14.10;99.90;;;;;;5046385;28;20044;-68
2022/09/01 03:53:39;;;;;;;3.60;1.20;;;14.10;99.90;;;;;;5062994;28;20044;-68
2022/09/01 03:56:07;;;;;;;4.47;1.48;;;14.10;99.90;;;;;;5062700;28;20508;-68
2022/09/01 03:58:34;;;;;;;3.85;1.55;;;14.10;99.90;;;;;;5063333;28;20119;-68
2022/09/01 04:01:01;;;;;;;3.15;1.40;;;14.00;99.90;;;;;;5051731;28;20037;-68
2022/09/01 04:03:30;;;;;;;5.47;1.23;;;14.00;99.90;;;;;;5041822;28;21180;-68
2022/09/01 04:05:58;;;;;;;3.88;1.35;;;14.00;99.90;;;;;;5068894;28;20046;-68
2022/09/01 04:08:28;;;;;;;4.22;1.27;;;14.20;99.90;;;;;;5063105;28;20037;-68
2022/09/01 04:10:54;;;;;;;2.30;1.17;;;14.00;99.90;;;;;;5063570;28;20064;-68
2022/09/01 04:13:23;;;;;;;4.40;1.60;;;14.00;99.90;;;;;;5062979;28;20080;-68
2022/09/01 04:15:49;;;;;;;3.38;1.30;;;14.00;99.90;;;;;;5061783;28;20044;-68
2022/09/01 04:18:22;;;;;;;3.60;1.30;;;14.00;99.90;;;;;;5060945;28;20047;-68
2022/09/01 04:20:55;;;;;;;2.60;1.20;;;13.90;99.90;;;;;;5058435;28;20124;-68
2022/09/01 04:23:32;;;;;;;2.72;1.17;;;14.00;99.90;;;;;;5060190;28;20044;-68
2022/09/01 04:26:07;;;;;;;3.72;1.05;;;13.90;99.90;;;;;;5063071;28;20127;-68
2022/09/01 04:28:38;;;;;;;2.63;1.10;;;13.90;99.90;;;;;;5065296;28;20048;-68
2022/09/01 04:31:08;;;;;;;4.97;1.30;;;13.90;99.90;;;;;;5062680;28;20629;-68
2022/09/01 04:33:38;;;;;;;3.55;1.08;;;13.80;99.90;;;;;;5064434;28;20102;-68
2022/09/01 04:36:12;;;;;;;3.45;1.65;;;13.80;99.90;;;;;;5058479;28;20044;-68
2022/09/01 04:38:37;;;;;;;2.45;1.13;;;13.80;99.90;;;;;;5057230;28;20043;-68
2022/09/01 04:41:08;;;;;;;2.35;1.20;;;13.70;99.90;;;;;;5064197;28;20036;-68
2022/09/01 04:43:34;;;;;;;2.80;1.20;;;13.80;99.90;;;;;;5058262;28;20496;-68
2022/09/01 04:46:01;;;;;;;3.70;1.20;;;13.70;99.90;;;;;;5057480;28;20448;-67
2022/09/01 04:48:27;;;;;;;4.70;1.40;;;13.70;99.90;;;;;;5061213;28;20048;-68
2022/09/01 04:50:55;;;;;;;1.73;0.98;;;13.60;99.90;;;;;;5058088;28;20127;-68
2022/09/01 04:53:20;;;;;;;4.22;1.17;;;13.60;99.90;;;;;;5059140;28;20404;-68
2022/09/01 04:55:46;;;;;;;2.45;1.00;;;13.60;99.90;;;;;;5059959;28;20048;-68
2022/09/01 04:58:16;;;;;;;4.45;1.92;;;13.60;99.90;;;;;;5053954;28;20044;-68
2022/09/01 05:00:46;;;;;;;5.35;1.30;;;13.60;99.90;;;;;;5058646;28;20075;-68
2022/09/01 05:03:13;;;;;;;4.00;1.10;;;13.60;99.90;;;;;;5051519;28;20045;-68
2022/09/01 05:05:41;;;;;;;3.83;1.20;;;13.50;99.90;;;;;;5070890;28;20463;-68
2022/09/01 05:08:13;;;;;;;2.05;1.20;;;13.40;99.90;;;;;;5062127;28;20056;-68
2022/09/01 05:10:42;;;;;;;2.95;1.25;;;13.50;99.90;;;;;;5055780;28;20047;-68
2022/09/01 05:13:16;;;;;;;3.67;1.33;;;13.50;99.90;;;;;;5049541;28;20052;-68
2022/09/01 05:15:45;;;;;;;4.30;1.42;;;13.40;99.90;;;;;;5074525;28;20049;-68
2022/09/01 05:18:23;;;;;;;4.30;1.27;;;13.50;99.90;;;;;;5043324;28;20074;-68
2022/09/01 05:20:51;;;;;;;2.58;1.10;;;13.50;99.90;;;;;;5059705;28;20388;-68
2022/09/01 05:23:18;;;;;;;4.03;1.38;;;13.40;99.90;;;;;;5056881;28;20053;-68
2022/09/01 05:25:50;;;;;;;5.95;1.63;;;13.40;99.90;;;;;;5061901;28;20448;-68
2022/09/01 05:28:17;;;;;;;3.30;1.33;;;13.50;99.90;;;;;;5058556;28;20055;-68
2022/09/01 05:30:44;;;;;;;6.35;1.40;;;13.60;99.90;;;;;;5063471;28;20048;-68
2022/09/01 05:33:15;;;;;;;3.53;1.38;;;13.40;99.90;;;;;;5060877;28;20675;-68
2022/09/01 05:35:50;;;;;;;4.90;1.50;;;13.40;99.90;;;;;;5061529;28;20055;-68
2022/09/01 05:38:17;;;;;;;3.67;1.33;;;13.40;99.90;;;;;;5061671;28;20060;-68
2022/09/01 05:40:43;;;;;;;4.50;1.42;;;13.40;99.90;;;;;;5055696;28;20051;-68
2022/09/01 05:43:12;;;;;;;7.78;1.67;;;13.60;99.90;;;;;;5055902;28;20442;-68
2022/09/01 05:45:42;;;;;;;4.88;1.65;;;13.40;99.90;;;;;;5060094;28;20040;-68
2022/09/01 05:48:16;;;;;;;3.80;1.63;;;13.50;99.90;;;;;;5055986;28;20509;-68
2022/09/01 05:50:42;;;;;;;4.35;1.50;;;13.50;99.90;;;;;;5055793;28;20060;-68
2022/09/01 05:53:14;;;;;;;4.97;1.45;;;13.50;99.90;;;;;;5058593;28;20102;-68
2022/09/01 05:55:42;;;;;;;5.05;1.58;;;13.50;99.90;;;;;;5046853;28;20602;-68
2022/09/01 05:58:12;;;;;;;3.63;1.60;;;13.50;99.90;;;;;;5061211;28;20070;-68
2022/09/01 06:00:40;;;;;;;4.60;1.77;;;13.60;99.90;;;;;;5061150;28;20048;-67
2022/09/01 06:03:09;;;;;;;4.57;1.88;;;13.60;99.90;;;;;;5043419;28;20053;-67
2022/09/01 06:05:36;;;;;;;3.97;1.75;;;13.60;99.90;;;;;;5060666;28;20044;-67
2022/09/01 06:08:09;;;;;;;8.38;2.00;;;13.70;99.90;;;;;;5057717;28;20397;-68
2022/09/01 06:10:39;;;;;;;5.63;1.75;;;13.80;99.90;;;;;;5059650;28;20044;-68
2022/09/01 06:13:08;;;;;;;3.70;1.73;;;13.90;99.90;;;;;;5056261;28;20123;-68
2022/09/01 06:15:39;;;;;;;4.22;1.85;;;13.90;99.90;;;;;;5060629;28;20048;-68
2022/09/01 06:18:10;;;;;;;5.18;2.10;;;14.00;99.90;;;;;;5059305;28;20036;-68
2022/09/01 06:20:41;;;;;;;4.57;1.98;;;14.10;99.90;;;;;;5062224;28;20044;-67
2022/09/01 06:23:08;;;;;;;4.82;1.95;;;14.10;99.90;;;;;;5057524;28;20451;-67
2022/09/01 06:25:39;;;;;;;4.78;1.70;;;14.20;99.90;;;;;;5058512;28;20512;-68
2022/09/01 06:28:07;;;;;;;5.25;2.00;;;14.40;99.90;;;;;;5058752;28;20615;-68
2022/09/01 06:30:35;;;;;;;4.85;2.03;;;14.50;99.90;;;;;;5042360;28;20532;-68
2022/09/01 06:33:08;;;;;;;5.35;1.90;;;14.60;99.90;;;;;;5057340;28;20141;-68
2022/09/01 06:35:37;;;;;;;6.85;2.33;;;14.70;99.90;;;;;;5044277;28;20048;-69
2022/09/01 06:38:05;;;;;;;9.82;2.10;;;14.80;99.90;;;;;;5059783;28;20132;-68
2022/09/01 06:40:32;;;;;;;5.55;1.80;;;14.90;99.90;;;;;;5055909;28;20071;-69
2022/09/01 06:42:59;;;;;;;4.85;2.00;;;15.00;99.90;;;;;;5053693;28;20047;-67
2022/09/01 06:45:25;;;;;;;3.20;1.77;;;15.00;99.90;;;;;;5038362;28;20063;-68
2022/09/01 06:47:51;;;;;;;10.27;1.95;;;15.00;99.90;;;;;;5069088;28;20036;-68
2022/09/01 06:50:23;;;;;;;4.57;1.90;;;15.10;99.90;;;;;;5061197;28;20062;-69
2022/09/01 06:53:00;;;;;;;6.97;2.08;;;15.10;99.90;;;;;;5061463;28;20037;-68
2022/09/01 06:55:32;;;;;;;9.75;1.90;;;15.10;99.90;;;;;;5045543;28;20511;-68
2022/09/01 06:57:58;;;;;;;5.47;1.77;;;15.10;99.90;;;;;;5043317;28;20048;-67
2022/09/01 07:00:25;;;;;;;5.07;1.60;;;15.20;99.90;;;;;;5060509;28;20032;-68
2022/09/01 07:02:56;;;;;;;3.78;1.55;;;15.20;99.90;;;;;;5057734;28;20496;-68
2022/09/01 07:05:22;;;;;;;5.05;1.50;;;15.30;99.90;;;;;;5061108;28;20033;-68
2022/09/01 07:07:50;;;;;;;5.57;1.50;;;15.20;99.90;;;;;;5062680;28;20040;-68
2022/09/01 07:10:21;;;;;;;4.25;1.73;;;15.20;99.90;;;;;;5056849;28;20044;-68
2022/09/01 07:12:54;;;;;;;3.42;1.60;;;15.30;99.90;;;;;;5059553;28;20142;-68
2022/09/01 07:15:24;;;;;;;4.15;1.73;;;15.40;99.90;;;;;;5055964;28;20094;-68
2022/09/01 07:17:52;;;;;;;6.72;2.08;;;15.40;99.90;;;;;;5052595;28;20041;-68
2022/09/01 07:20:34;;;;;;;3.70;1.70;;;15.60;99.90;;;;;;5060840;28;20098;-68
2022/09/01 07:23:00;;;;;;;5.43;1.63;;;15.80;99.90;;;;;;5058831;28;20040;-69
2022/09/01 07:25:26;;;;;;;3.72;1.60;;;16.00;99.90;;;;;;5044326;28;20079;-68
2022/09/01 07:27:53;;;;;;;4.40;1.50;;;16.30;99.90;;;;;;5059888;28;20139;-68
2022/09/01 07:30:21;;;;;;;4.82;1.63;;;16.60;99.90;;;;;;5061804;28;20469;-68
2022/09/01 07:32:48;;;;;;;6.40;1.58;;;16.80;99.90;;;;;;5060582;28;20118;-68
2022/09/01 07:35:18;;;;;;;7.93;1.60;;;17.00;99.90;;;;;;5060611;28;20471;-68
2022/09/01 07:37:47;;;;;;;5.90;1.50;;;17.10;99.90;;;;;;5058737;28;20072;-68
2022/09/01 07:40:17;;;;;;;2.65;1.17;;;17.20;99.90;;;;;;5059506;28;20055;-69
2022/09/01 07:42:46;;;;;;;7.03;1.50;;;17.20;99.90;;;;;;5060684;28;20076;-69
2022/09/01 07:45:15;;;;;;;5.55;1.40;;;17.30;99.90;;;;;;5060624;28;20037;-69
2022/09/01 07:47:42;;;;;;;11.48;1.65;;;17.40;99.90;;;;;;5060835;28;20125;-69
2022/09/01 07:50:11;;;;;;;4.85;1.30;;;17.40;99.90;;;;;;5060951;28;20093;-68
2022/09/01 07:52:43;;;;;;;4.47;1.20;;;17.40;99.90;;;;;;5059853;28;20048;-69
2022/09/01 07:55:14;;;;;;;4.15;1.13;;;17.40;99.90;;;;;;5057651;28;20078;-69
2022/09/01 07:57:41;;;;;;;2.92;1.23;;;17.50;99.90;;;;;;5058601;28;20083;-69
2022/09/01 08:00:10;;;;;;;3.42;1.35;;;17.70;99.90;;;;;;5058351;28;20090;-69
2022/09/01 08:02:38;;;;;;;4.35;1.20;;;17.80;99.90;;;;;;5068522;28;20552;-69
2022/09/01 08:05:11;;;;;;;4.78;1.33;;;17.90;99.90;;;;;;5058193;28;20119;-68
2022/09/01 08:07:37;;;;;;;4.45;1.30;;;17.90;99.90;;;;;;5041990;28;20052;-68
2022/09/01 08:10:06;;;;;;;7.57;1.55;;;18.00;99.90;;;;;;5058124;28;20047;-68
2022/09/01 08:12:33;;;;;;;4.95;1.00;;;18.10;99.90;;;;;;5039736;28;20432;-68
2022/09/01 08:15:01;;;;;;;6.90;1.20;;;18.20;99.90;;;;;;5045299;28;20060;-69
2022/09/01 08:17:27;;;;;;;3.85;1.00;;;18.30;99.90;;;;;;5064005;28;20044;-69
2022/09/01 08:19:53;;;;;;;4.43;1.13;;;18.40;99.90;;;;;;5046534;28;20398;-69
2022/09/01 08:22:24;;;;;;;5.47;1.30;;;18.50;99.90;;;;;;5062046;28;20051;-68
2022/09/01 08:24:50;;;;;;;3.25;1.20;;;18.60;99.90;;;;;;5044977;28;20059;-68
2022/09/01 08:27:16;;;;;;;4.68;1.00;;;18.70;99.90;;;;;;5062432;28;20118;-69
2022/09/01 08:29:42;;;;;;;4.75;1.15;;;18.80;99.90;;;;;;5059584;28;20504;-69
2022/09/01 08:32:09;;;;;;;4.22;1.13;;;18.90;99.90;;;;;;5061268;28;20123;-69
2022/09/01 08:34:36;;;;;;;4.28;1.40;;;19.00;99.90;;;;;;5072038;28;20081;-69
2022/09/01 08:37:03;;;;;;;3.47;1.08;;;19.10;99.90;;;;;;5061143;28;20167;-69
2022/09/01 08:39:29;;;;;;;3.13;1.00;;;19.20;99.90;;;;;;5059643;28;21526;-69
2022/09/01 08:42:04;;;;;;;3.80;0.90;;;19.40;99.90;;;;;;5060619;28;20040;-69
2022/09/01 08:44:50;;;;;;;4.35;1.15;;;19.50;99.90;;;;;;5078601;28;20052;-70
2022/09/01 08:47:17;;;;;;;3.13;1.10;;;19.60;99.90;;;;;;5059622;28;20453;-70
2022/09/01 08:49:45;;;;;;;5.78;1.20;;;19.70;99.90;;;;;;5062931;28;20044;-70
2022/09/01 08:52:20;;;;;;;3.53;1.08;;;19.80;99.90;;;;;;5072478;28;20060;-70
2022/09/01 08:54:57;;;;;;;4.00;1.15;;;19.80;99.90;;;;;;5061591;28;20044;-72
2022/09/01 08:57:29;;;;;;;2.92;1.05;;;20.00;99.90;;;;;;5059381;28;20048;-71
2022/09/01 08:59:56;;;;;;;4.38;0.90;;;20.20;99.90;;;;;;5060152;28;20675;-70
2022/09/01 09:02:42;;;;;;;1.95;0.95;;;20.30;99.90;;;;;;5063194;28;20051;-70
2022/09/01 09:05:40;;;;;;;3.55;1.10;;;20.30;99.90;;;;;;5061851;28;20044;-71
2022/09/01 09:08:33;;;;;;;5.32;1.10;;;20.30;99.90;;;;;;5064564;28;20434;-71
2022/09/01 09:11:02;;;;;;;3.38;0.95;;;20.30;99.90;;;;;;5063163;28;20051;-71
2022/09/01 09:14:16;;;;;;;4.70;1.08;;;20.40;99.90;;;;;;5063046;28;20421;-71
2022/09/01 09:16:48;;;;;;;3.22;0.90;;;20.50;99.90;;;;;;4990478;28;20042;-71
2022/09/01 09:19:22;;;;;;;6.30;0.98;;;20.60;99.90;;;;;;5064429;28;20093;-70
2022/09/01 09:21:51;;;;;;;4.15;1.30;;;20.70;99.90;;;;;;5062828;28;20467;-70
2022/09/01 09:24:28;;;;;;;5.88;1.00;;;20.70;99.90;;;;;;5045096;28;20052;-71
2022/09/01 09:26:57;;;;;;;1.77;0.80;;;20.70;99.90;;;;;;5045380;28;20055;-71
2022/09/01 09:29:24;;;;;;;4.82;1.13;;;20.80;99.90;;;;;;5061698;28;20209;-71
2022/09/01 09:32:17;;;;;;;4.40;0.95;;;20.80;99.90;;;;;;5055466;28;20120;-71
2022/09/01 09:34:43;;;;;;;3.47;0.90;;;20.90;99.90;;;;;;5057204;28;20140;-71
2022/09/01 09:37:30;;;;;;;5.38;0.90;;;21.00;99.90;;;;;;5044756;28;20443;-70
2022/09/01 09:40:10;;;;;;;3.08;1.00;;;21.10;99.90;;;;;;5061222;28;20102;-71
2022/09/01 09:42:41;;;;;;;5.82;1.10;;;21.10;99.90;;;;;;5063720;28;20445;-71
2022/09/01 09:45:22;;;;;;;2.22;0.70;;;21.20;99.90;;;;;;5064935;28;20041;-71
2022/09/01 09:47:48;;;;;;;4.72;1.45;;;21.20;99.90;;;;;;5064268;28;20111;-71
2022/09/01 09:50:20;;;;;;;2.90;0.95;;;21.20;99.90;;;;;;5061332;28;20033;-71
2022/09/01 09:52:47;;;;;;;3.22;0.75;;;21.30;99.90;;;;;;5063468;28;20047;-71
2022/09/01 09:55:24;;;;;;;1.38;0.70;;;21.30;99.90;;;;;;5062762;28;20033;-71
2022/09/01 09:57:54;;;;;;;5.53;1.55;;;21.40;99.90;;;;;;5056975;28;20086;-71
2022/09/01 10:00:32;;;;;;;2.97;1.00;;;21.60;99.90;;;;;;5059433;28;20109;-71
2022/09/01 10:03:11;;;;;;;2.95;0.85;;;21.60;99.90;;;;;;5074486;28;20082;-71
2022/09/01 10:05:50;;;;;;;4.75;0.80;;;21.60;99.90;;;;;;5062672;28;20055;-71
2022/09/01 10:08:33;;;;;;;2.28;0.90;;;21.70;99.90;;;;;;5055754;28;20040;-71
2022/09/01 10:10:59;;;;;;;4.25;1.40;;;21.70;99.90;;;;;;5059227;28;20056;-70
2022/09/01 10:13:28;;;;;;;3.38;0.80;;;21.70;99.90;;;;;;5043301;28;20053;-71
2022/09/01 10:15:57;;;;;;;2.88;0.90;;;21.80;99.90;;;;;;5073629;28;20047;-72
2022/09/01 10:18:31;;;;;;;2.10;0.82;;;21.70;99.90;;;;;;5059235;28;20120;-72
2022/09/01 10:21:04;;;;;;;2.53;1.00;;;21.80;99.90;;;;;;5059248;28;20044;-71
2022/09/01 10:23:33;;;;;;;1.67;0.80;;;21.80;99.90;;;;;;5074175;28;20523;-71
2022/09/01 10:26:34;;;;;;;2.05;0.73;;;21.90;99.90;;;;;;5060746;28;20048;-70
2022/09/01 10:29:17;;;;;;;2.47;0.70;;;22.00;99.90;;;;;;5059094;28;20645;-71
2022/09/01 10:31:43;;;;;;;3.30;1.00;;;21.90;99.90;;;;;;5057284;28;20052;-71
2022/09/01 10:34:16;;;;;;;3.78;0.90;;;21.90;99.90;;;;;;5072588;28;20044;-70
2022/09/01 10:36:44;;;;;;;2.53;0.80;;;21.90;99.90;;;;;;5056324;28;20044;-71
2022/09/01 10:39:12;;;;;;;2.88;0.82;;;22.00;99.90;;;;;;5041451;28;20533;-71
2022/09/01 10:41:42;;;;;;;2.03;0.70;;;22.00;99.90;;;;;;5062666;28;20036;-71
2022/09/01 10:44:19;;;;;;;2.72;1.10;;;22.10;99.90;;;;;;5058494;28;20499;-71
2022/09/01 10:46:45;;;;;;;4.25;0.95;;;22.20;99.90;;;;;;5062956;28;20060;-70
2022/09/01 10:49:26;;;;;;;3.03;1.00;;;22.20;99.90;;;;;;5060404;28;20051;-70
2022/09/01 10:51:53;;;;;;;2.22;0.90;;;22.30;99.90;;;;;;5059681;28;20059;-71
2022/09/01 10:54:38;;;;;;;4.75;1.00;;;22.20;99.90;;;;;;5061479;28;20032;-70
2022/09/01 10:57:22;;;;;;;2.08;0.85;;;22.20;99.00;;;;;;5073570;28;20685;-71
2022/09/01 10:59:48;;;;;;;6.47;0.90;;;22.10;98.90;;;;;;5059942;28;20618;-71
2022/09/01 11:02:17;;;;;;;2.45;1.00;;;22.20;98.10;;;;;;5061287;28;20493;-71
2022/09/01 11:04:46;;;;;;;2.75;0.70;;;22.20;98.10;;;;;;5061206;28;20040;-71
2022/09/01 11:07:18;;;;;;;2.67;0.90;;;22.30;98.90;;;;;;5058815;28;20645;-71
2022/09/01 11:09:49;;;;;;;1.58;0.75;;;22.40;98.70;;;;;;5044088;28;20040;-71
2022/09/01 11:12:47;;;;;;;1.08;0.63;;;22.40;98.50;;;;;;5072163;28;20456;-70
2022/09/01 11:15:14;;;;;;;3.97;0.80;;;22.30;97.20;;;;;;5060806;28;20064;-71
2022/09/01 11:17:49;;;;;;;3.55;0.80;;;22.20;97.10;;;;;;5045069;28;20153;-71
2022/09/01 11:20:33;;;;;;;2.10;0.90;;;22.20;97.00;;;;;;5056730;28;20048;-71
2022/09/01 11:23:22;;;;;;;3.08;1.00;;;22.30;96.80;;;;;;5061685;28;20975;-71
2022/09/01 11:25:50;;;;;;;2.00;0.70;;;22.20;96.60;;;;;;5074526;28;20397;-71
2022/09/01 11:28:15;;;;;;;3.90;0.80;;;22.20;97.70;;;;;;5057942;28;20457;-71
2022/09/01 11:30:54;;;;;;;4.28;1.10;;;22.10;97.60;;;;;;5059559;28;20067;-71
2022/09/01 11:33:26;;;;;;;2.78;0.70;;;22.20;97.60;;;;;;5040516;28;20665;-71
2022/09/01 11:36:48;;;;;;;2.75;0.70;;;22.10;97.50;;;;;;5059768;28;20052;-71
2022/09/01 11:39:28;;;;;;;2.17;0.80;;;22.20;97.60;;;;;;5023167;28;20045;-72
2022/09/01 11:42:00;;;;;;;2.75;0.82;;;22.20;97.60;;;;;;5057600;28;20087;-71
2022/09/01 11:44:49;;;;;;;3.40;0.70;;;22.10;97.30;;;;;;5057103;28;20099;-72
2022/09/01 11:47:30;;;;;;;2.22;0.80;;;22.20;96.40;;;;;;5054988;28;20044;-71
2022/09/01 11:49:58;;;;;;;1.13;0.55;;;22.10;95.30;;;;;;5070371;28;20299;-72
2022/09/01 11:52:28;;;;;;;3.45;0.80;;;22.20;95.30;;;;;;5070676;28;20052;-70
2022/09/01 11:54:55;;;;;;;2.83;0.83;;;22.10;95.00;;;;;;5057725;28;20074;-71
2022/09/01 11:57:26;;;;;;;3.80;0.85;;;22.20;94.80;;;;;;5056005;28;20102;-71
2022/09/01 11:59:52;;;;;;;2.40;0.75;;;22.30;94.10;;;;;;5057467;28;20052;-70
2022/09/01 12:02:23;;;;;;;3.67;0.80;;;22.40;94.40;;;;;;5052086;28;20069;-70
2022/09/01 12:04:50;;;;;;;2.13;0.70;;;22.40;94.50;;;;;;5056180;28;20062;-70
2022/09/01 12:07:39;;;;;;;4.30;0.73;;;22.30;94.40;;;;;;5056636;28;20040;-71
2022/09/01 12:10:17;;;;;;;2.00;0.60;;;22.30;94.70;;;;;;5055933;28;20157;-72
2022/09/01 12:12:43;;;;;;;1.65;0.70;;;22.40;94.70;;;;;;5057780;28;20660;-71
2022/09/01 12:15:19;;;;;;;3.03;0.70;;;22.50;94.00;;;;;;5057242;28;20056;-71
2022/09/01 12:17:45;;;;;;;4.75;0.82;;;22.50;93.40;;;;;;5041026;28;21088;-71
2022/09/01 12:20:24;;;;;;;1.13;0.60;;;22.40;93.70;;;;;;5054981;28;20048;-70
2022/09/01 12:22:50;;;;;;;1.63;0.70;;;22.40;93.40;;;;;;5057645;28;20721;-71
2022/09/01 12:25:38;;;;;;;1.42;0.70;;;22.30;94.00;;;;;;5057681;28;20036;-71
2022/09/01 12:28:05;;;;;;;1.75;0.73;;;22.40;93.80;;;;;;5038580;28;20052;-71
2022/09/01 12:30:38;;;;;;;2.53;0.93;;;22.50;93.90;;;;;;5054997;28;20129;-72
2022/09/01 12:33:06;;;;;;;3.15;0.90;;;22.70;92.50;;;;;;5056324;28;20567;-71
2022/09/01 12:35:32;;;;;;;0.73;0.57;;;22.80;92.80;;;;;;5057713;28;20044;-72
2022/09/01 12:38:20;;;;;;;3.28;0.50;;;22.80;92.60;;;;;;5058933;28;20048;-71
2022/09/01 12:40:48;;;;;;;2.55;0.80;;;22.90;92.30;;;;;;5056993;28;20052;-72
2022/09/01 12:43:35;;;;;;;4.38;0.80;;;22.90;91.80;;;;;;5039658;28;20044;-72
2022/09/01 12:46:03;;;;;;;3.28;0.80;;;22.90;91.70;;;;;;5056643;28;20568;-72
2022/09/01 12:48:36;;;;;;;2.35;0.60;;;22.90;91.60;;;;;;5057633;28;20082;-72
2022/09/01 12:51:14;;;;;;;2.55;0.77;;;22.90;91.40;;;;;;5039539;28;20076;-72
2022/09/01 12:53:40;;;;;;;2.10;0.70;;;22.90;91.70;;;;;;5058183;28;20047;-71
2022/09/01 12:56:20;;;;;;;2.22;0.80;;;22.80;90.80;;;;;;5056630;28;20041;-72
2022/09/01 12:58:53;;;;;;;1.67;0.90;;;22.70;91.60;;;;;;5055861;28;20048;-71
2022/09/01 13:01:26;;;;;;;1.75;0.60;;;22.80;90.80;;;;;;5058846;28;20170;-72
2022/09/01 13:04:13;;;;;;;1.77;0.80;;;22.90;91.40;;;;;;5060171;28;20119;-71
2022/09/01 13:06:39;;;;;;;6.53;1.05;;;23.00;90.70;;;;;;5053706;28;20114;-71
2022/09/01 13:09:05;;;;;;;2.35;0.60;;;23.10;90.30;;;;;;5057384;28;20048;-72
2022/09/01 13:11:30;;;;;;;2.03;0.75;;;23.10;90.60;;;;;;5058391;28;20102;-72